createdAt,value
2022-10-25T00:00:12.030Z,98378.09
2022-10-25T00:01:17.289Z,98376.47
2022-10-25T00:02:21.947Z,98376.47
2022-10-25T00:03:26.169Z,98378.25
2022-10-25T00:04:30.511Z,98383.69
2022-10-25T00:05:34.316Z,98381.25
2022-10-25T00:06:37.019Z,98375.13
2022-10-25T00:07:40.769Z,98377.63
2022-10-25T00:08:43.516Z,98382.88
2022-10-25T00:09:47.250Z,98382.06
2022-10-25T00:10:49.999Z,98382.06
2022-10-25T00:11:53.768Z,98385.00
2022-10-25T00:12:56.597Z,98387.63
2022-10-25T00:14:02.588Z,98382.38
2022-10-25T00:15:06.349Z,98395.34
2022-10-25T00:16:15.666Z,98384.81
2022-10-25T00:17:18.385Z,98394.50
2022-10-25T00:18:22.228Z,98396.31
2022-10-25T00:19:25.002Z,98392.06
2022-10-25T00:20:30.376Z,98395.66
2022-10-25T00:21:33.243Z,98393.19
2022-10-25T00:22:37.039Z,98395.00
2022-10-25T00:23:39.773Z,98393.34
2022-10-25T00:24:43.562Z,98394.16
2022-10-25T00:25:46.262Z,98389.91
2022-10-25T00:26:49.989Z,98397.97
2022-10-25T00:27:52.757Z,98393.84
2022-10-25T00:28:56.845Z,98397.44
2022-10-25T00:29:59.695Z,98394.16
2022-10-25T00:31:04.474Z,98400.38
2022-10-25T00:32:07.188Z,98405.63
2022-10-25T00:33:11.012Z,98395.31
2022-10-25T00:34:13.819Z,98392.50
2022-10-25T00:35:17.682Z,98405.63
2022-10-25T00:36:23.649Z,98404.69
2022-10-25T00:37:27.379Z,98404.81
2022-10-25T00:38:30.829Z,98406.63
2022-10-25T00:39:34.604Z,98403.19
2022-10-25T00:40:37.320Z,98407.44
2022-10-25T00:41:41.281Z,98406.63
2022-10-25T00:42:44.098Z,98405.81
2022-10-25T00:43:49.501Z,98409.13
2022-10-25T00:44:54.715Z,98404.69
2022-10-25T00:45:58.715Z,98402.88
2022-10-25T00:47:02.142Z,98401.22
2022-10-25T00:48:06.861Z,98400.25
2022-10-25T00:49:12.920Z,98401.88
2022-10-25T00:50:22.772Z,98400.06
2022-10-25T00:51:32.173Z,98397.44
2022-10-25T00:52:36.722Z,98391.38
2022-10-25T00:53:40.851Z,98407.13
2022-10-25T00:54:45.893Z,98395.81
2022-10-25T00:55:53.727Z,98395.00
2022-10-25T00:56:58.609Z,98400.25
2022-10-25T00:58:05.571Z,98404.69
2022-10-25T00:59:10.813Z,98410.88
2022-10-25T01:00:15.172Z,98396.13
2022-10-25T01:01:18.895Z,98402.38
2022-10-25T01:02:24.343Z,98390.22
2022-10-25T01:03:27.368Z,98399.09
2022-10-25T01:04:32.093Z,98394.78
2022-10-25T01:05:35.403Z,98394.78
2022-10-25T01:06:42.671Z,98393.16
2022-10-25T01:07:45.722Z,98396.94
2022-10-25T01:08:50.531Z,98395.28
2022-10-25T01:09:53.365Z,98399.88
2022-10-25T01:10:57.140Z,98397.41
2022-10-25T01:11:59.888Z,98400.22
2022-10-25T01:13:03.881Z,98389.03
2022-10-25T01:14:07.615Z,98391.81
2022-10-25T01:15:12.161Z,98380.66
2022-10-25T01:16:19.392Z,98389.50
2022-10-25T01:17:29.553Z,98389.84
2022-10-25T01:18:43.509Z,98390.81
2022-10-25T01:20:04.282Z,98391.78
2022-10-25T01:21:54.978Z,98388.50
2022-10-25T01:23:05.553Z,98388.81
2022-10-25T01:24:22.015Z,98387.16
2022-10-25T01:25:54.917Z,98390.94
2022-10-25T01:27:21.643Z,98387.50
2022-10-25T01:28:30.987Z,98384.38
2022-10-25T01:30:07.101Z,98385.34
2022-10-25T01:31:27.574Z,98374.34
2022-10-25T01:32:36.042Z,98377.28
2022-10-25T01:33:44.435Z,98371.19
2022-10-25T01:34:52.215Z,98375.78
2022-10-25T01:35:58.999Z,98373.34
2022-10-25T01:37:05.976Z,98362.16
2022-10-25T01:38:32.714Z,98372.00
2022-10-25T01:39:37.456Z,98372.31
2022-10-25T01:40:47.525Z,98378.72
2022-10-25T01:41:57.184Z,98377.88
2022-10-25T01:43:03.827Z,98379.81
2022-10-25T01:44:19.021Z,98379.19
2022-10-25T01:45:26.639Z,98379.00
2022-10-25T01:46:36.373Z,98372.94
2022-10-25T01:47:45.320Z,98374.59
2022-10-25T01:48:50.617Z,98386.72
2022-10-25T01:49:58.289Z,98378.03
2022-10-25T01:51:07.946Z,98382.44
2022-10-25T01:52:10.740Z,98384.09
2022-10-25T01:53:14.586Z,98389.19
2022-10-25T01:54:22.558Z,98387.22
2022-10-25T01:55:30.194Z,98382.66
2022-10-25T01:56:36.454Z,98382.34
2022-10-25T01:57:54.550Z,98380.53
2022-10-25T01:59:09.652Z,98381.34
2022-10-25T02:00:15.823Z,98378.72
2022-10-25T02:01:24.855Z,98382.16
2022-10-25T02:02:33.064Z,98389.09
2022-10-25T02:03:39.144Z,98382.16
2022-10-25T02:04:49.421Z,98383.84
2022-10-25T02:06:00.853Z,98383.66
2022-10-25T02:07:09.882Z,98392.38
2022-10-25T02:08:22.404Z,98382.84
2022-10-25T02:09:30.802Z,98391.53
2022-10-25T02:10:39.345Z,98386.28
2022-10-25T02:11:42.174Z,98389.56
2022-10-25T02:12:53.679Z,98383.34
2022-10-25T02:14:06.604Z,98379.75
2022-10-25T02:15:12.922Z,98381.56
2022-10-25T02:16:19.722Z,98383.19
2022-10-25T02:17:24.871Z,98379.59
2022-10-25T02:19:43.827Z,98387.78
2022-10-25T02:20:47.463Z,98400.25
2022-10-25T02:21:51.941Z,98407.28
2022-10-25T02:22:55.083Z,98411.03
2022-10-25T02:23:59.754Z,98411.38
2022-10-25T02:25:02.558Z,98402.16
2022-10-25T02:26:08.635Z,98399.00
2022-10-25T02:27:12.251Z,98402.78
2022-10-25T02:28:17.806Z,98396.38
2022-10-25T02:29:21.170Z,98394.03
2022-10-25T02:30:24.958Z,98400.75
2022-10-25T02:31:28.140Z,98394.16
2022-10-25T02:32:32.250Z,98393.78
2022-10-25T02:33:36.432Z,98395.94
2022-10-25T02:34:41.288Z,98393.59
2022-10-25T02:35:43.995Z,98389.63
2022-10-25T02:36:50.190Z,98391.75
2022-10-25T02:37:52.942Z,98387.78
2022-10-25T02:38:57.638Z,98382.66
2022-10-25T02:40:00.492Z,98395.28
2022-10-25T02:41:05.394Z,98397.22
2022-10-25T02:42:09.163Z,98402.63
2022-10-25T02:43:11.831Z,98389.81
2022-10-25T02:44:15.850Z,98391.75
2022-10-25T02:45:18.642Z,98390.13
2022-10-25T02:46:23.796Z,98394.53
2022-10-25T02:47:26.484Z,98392.91
2022-10-25T02:48:30.234Z,98395.53
2022-10-25T02:49:34.435Z,98392.91
2022-10-25T02:50:38.211Z,98394.53
2022-10-25T02:51:42.001Z,98391.75
2022-10-25T02:52:45.124Z,98396.84
2022-10-25T02:53:49.081Z,98392.28
2022-10-25T02:54:51.810Z,98395.72
2022-10-25T02:56:01.434Z,98392.28
2022-10-25T02:57:04.133Z,98395.88
2022-10-25T02:58:07.984Z,98395.88
2022-10-25T02:59:12.036Z,98388.97
2022-10-25T03:00:16.963Z,98396.03
2022-10-25T03:01:21.482Z,98391.75
2022-10-25T03:02:26.192Z,98396.19
2022-10-25T03:03:29.464Z,98390.13
2022-10-25T03:04:34.657Z,98386.69
2022-10-25T03:05:37.430Z,98391.09
2022-10-25T03:06:41.194Z,98389.31
2022-10-25T03:07:43.903Z,98394.53
2022-10-25T03:08:47.795Z,98388.47
2022-10-25T03:09:50.588Z,98394.53
2022-10-25T03:10:54.943Z,98402.41
2022-10-25T03:11:57.681Z,98399.09
2022-10-25T03:13:01.415Z,98396.63
2022-10-25T03:14:04.161Z,98401.22
2022-10-25T03:15:09.213Z,98403.16
2022-10-25T03:16:12.236Z,98397.41
2022-10-25T03:17:16.026Z,98404.47
2022-10-25T03:18:18.721Z,98407.38
2022-10-25T03:19:22.509Z,98412.78
2022-10-25T03:20:26.798Z,98415.69
2022-10-25T03:21:30.544Z,98411.88
2022-10-25T03:22:33.222Z,98411.34
2022-10-25T03:23:36.981Z,98413.47
2022-10-25T03:24:39.693Z,98417.19
2022-10-25T03:25:43.526Z,98410.59
2022-10-25T03:26:46.213Z,98416.66
2022-10-25T03:27:50.480Z,98409.78
2022-10-25T03:28:53.159Z,98404.69
2022-10-25T03:29:56.954Z,98415.84
2022-10-25T03:31:01.105Z,98405.22
2022-10-25T03:32:05.778Z,98414.56
2022-10-25T03:33:09.552Z,98415.22
2022-10-25T03:34:12.241Z,98418.53
2022-10-25T03:35:16.151Z,98423.47
2022-10-25T03:36:21.343Z,98422.34
2022-10-25T03:37:24.216Z,98421.22
2022-10-25T03:38:27.974Z,98417.47
2022-10-25T03:39:30.673Z,98420.63
2022-10-25T03:40:34.442Z,98418.66
2022-10-25T03:41:37.184Z,98421.94
2022-10-25T03:42:41.102Z,98417.41
2022-10-25T03:43:45.276Z,98420.84
2022-10-25T03:44:49.474Z,98421.66
2022-10-25T03:45:52.195Z,98421.50
2022-10-25T03:46:56.233Z,98419.69
2022-10-25T03:47:58.934Z,98422.31
2022-10-25T03:49:02.633Z,98418.75
2022-10-25T03:50:06.065Z,98428.25
2022-10-25T03:51:09.875Z,98434.31
2022-10-25T03:52:14.096Z,98423.84
2022-10-25T03:53:17.833Z,98433.50
2022-10-25T03:54:21.737Z,98424.81
2022-10-25T03:55:27.176Z,98426.63
2022-10-25T03:56:29.892Z,98439.56
2022-10-25T03:57:33.685Z,98434.31
2022-10-25T03:58:36.363Z,98430.88
2022-10-25T03:59:40.110Z,98431.69
2022-10-25T04:00:42.851Z,98433.34
2022-10-25T04:01:46.712Z,98432.50
2022-10-25T04:02:57.008Z,98425.47
2022-10-25T04:04:03.011Z,98431.53
2022-10-25T04:05:06.878Z,98419.25
2022-10-25T04:06:10.613Z,98420.06
2022-10-25T04:07:14.801Z,98429.59
2022-10-25T04:08:18.573Z,98430.44
2022-10-25T04:09:21.210Z,98422.41
2022-10-25T04:10:25.546Z,98434.53
2022-10-25T04:11:29.531Z,98436.16
2022-10-25T04:12:32.222Z,98440.47
2022-10-25T04:13:35.964Z,98430.63
2022-10-25T04:14:38.726Z,98428.00
2022-10-25T04:15:42.506Z,98430.47
2022-10-25T04:16:45.279Z,98438.19
2022-10-25T04:17:50.581Z,98426.72
2022-10-25T04:18:53.612Z,98428.38
2022-10-25T04:19:57.380Z,98427.38
2022-10-25T04:21:00.103Z,98429.19
2022-10-25T04:22:03.983Z,98433.44
2022-10-25T04:23:08.435Z,98430.84
2022-10-25T04:24:12.939Z,98427.22
2022-10-25T04:25:15.841Z,98417.59
2022-10-25T04:26:20.382Z,98427.09
2022-10-25T04:27:23.071Z,98435.66
2022-10-25T04:28:27.334Z,98431.34
2022-10-25T04:29:30.192Z,98439.22
2022-10-25T04:30:36.588Z,98430.53
2022-10-25T04:31:41.543Z,98427.78
2022-10-25T04:32:45.584Z,98428.72
2022-10-25T04:33:49.112Z,98437.59
2022-10-25T04:34:52.841Z,98434.97
2022-10-25T04:35:56.681Z,98434.81
2022-10-25T04:37:00.449Z,98442.66
2022-10-25T04:38:03.303Z,98435.66
2022-10-25T04:39:08.498Z,98429.56
2022-10-25T04:40:12.216Z,98437.41
2022-10-25T04:41:15.942Z,98433.84
2022-10-25T04:42:19.672Z,98433.72
2022-10-25T04:43:23.592Z,98437.97
2022-10-25T04:44:26.444Z,98437.00
2022-10-25T04:45:30.343Z,98449.94
2022-10-25T04:46:33.195Z,98441.25
2022-10-25T04:47:36.959Z,98447.19
2022-10-25T04:48:40.671Z,98442.91
2022-10-25T04:49:44.475Z,98447.19
2022-10-25T04:50:47.289Z,98439.31
2022-10-25T04:52:58.584Z,98438.34
2022-10-25T04:54:02.436Z,98426.88
2022-10-25T04:55:07.244Z,98437.38
2022-10-25T04:56:13.293Z,98426.06
2022-10-25T04:57:16.072Z,98433.75
2022-10-25T04:58:19.815Z,98433.75
2022-10-25T04:59:22.651Z,98434.56
2022-10-25T05:00:26.734Z,98430.97
2022-10-25T05:01:29.610Z,98434.44
2022-10-25T05:02:33.652Z,98428.34
2022-10-25T05:03:36.715Z,98426.56
2022-10-25T05:04:40.471Z,98427.41
2022-10-25T05:05:43.230Z,98427.41
2022-10-25T05:06:47.095Z,98422.97
2022-10-25T05:07:49.884Z,98433.47
2022-10-25T05:08:53.906Z,98430.97
2022-10-25T05:09:56.660Z,98432.13
2022-10-25T05:11:01.926Z,98437.53
2022-10-25T05:12:05.115Z,98434.09
2022-10-25T05:13:08.986Z,98432.41
2022-10-25T05:14:11.733Z,98428.16
2022-10-25T05:15:15.617Z,98425.53
2022-10-25T05:16:22.111Z,98424.72
2022-10-25T05:17:26.034Z,98429.13
2022-10-25T05:18:28.806Z,98429.94
2022-10-25T05:19:32.691Z,98426.34
2022-10-25T05:20:35.421Z,98429.94
2022-10-25T05:21:39.264Z,98430.13
2022-10-25T05:22:42.051Z,98439.63
2022-10-25T05:23:46.292Z,98439.63
2022-10-25T05:24:49.077Z,98441.25
2022-10-25T05:26:03.984Z,98435.03
2022-10-25T05:27:07.772Z,98439.47
2022-10-25T05:28:10.495Z,98442.09
2022-10-25T05:29:14.376Z,98440.28
2022-10-25T05:30:17.222Z,98440.97
2022-10-25T05:31:22.572Z,98441.78
2022-10-25T05:32:25.475Z,98441.78
2022-10-25T05:33:29.298Z,98441.78
2022-10-25T05:34:33.075Z,98442.78
2022-10-25T05:35:35.854Z,98437.38
2022-10-25T05:36:39.792Z,98438.19
2022-10-25T05:37:42.422Z,98442.59
2022-10-25T05:38:46.773Z,98447.84
2022-10-25T05:39:49.461Z,98445.22
2022-10-25T05:40:57.094Z,98443.72
2022-10-25T05:42:02.758Z,98438.63
2022-10-25T05:43:06.466Z,98444.03
2022-10-25T05:44:10.414Z,98439.63
2022-10-25T05:45:13.193Z,98441.41
2022-10-25T05:46:19.340Z,98447.50
2022-10-25T05:47:22.053Z,98446.66
2022-10-25T05:48:25.824Z,98457.97
2022-10-25T05:49:29.531Z,98451.91
2022-10-25T05:50:32.454Z,98451.91
2022-10-25T05:51:37.104Z,98455.50
2022-10-25T05:52:42.832Z,98453.72
2022-10-25T05:53:47.814Z,98448.47
2022-10-25T05:54:50.526Z,98454.53
2022-10-25T05:55:54.441Z,98453.72
2022-10-25T05:56:58.284Z,98452.91
2022-10-25T05:58:02.455Z,98452.06
2022-10-25T05:59:09.158Z,98460.88
2022-10-25T06:00:13.625Z,98453.16
2022-10-25T06:01:19.681Z,98453.31
2022-10-25T06:02:22.509Z,98460.88
2022-10-25T06:03:26.523Z,98461.59
2022-10-25T06:04:30.640Z,98468.31
2022-10-25T06:05:33.843Z,98462.44
2022-10-25T06:06:38.772Z,98471.81
2022-10-25T06:07:41.616Z,98473.16
2022-10-25T06:08:45.904Z,98468.56
2022-10-25T06:09:48.713Z,98475.34
2022-10-25T06:10:52.605Z,98476.00
2022-10-25T06:11:56.484Z,98475.53
2022-10-25T06:12:59.182Z,98483.59
2022-10-25T06:14:04.505Z,98493.34
2022-10-25T06:15:09.101Z,98491.22
2022-10-25T06:16:14.108Z,98494.34
2022-10-25T06:17:17.854Z,98497.63
2022-10-25T06:18:20.635Z,98495.69
2022-10-25T06:19:24.477Z,98494.56
2022-10-25T06:20:27.349Z,98500.47
2022-10-25T06:21:32.003Z,98496.06
2022-10-25T06:22:34.682Z,98501.13
2022-10-25T06:23:38.924Z,98495.06
2022-10-25T06:24:41.752Z,98492.28
2022-10-25T06:25:45.462Z,98495.72
2022-10-25T06:26:49.443Z,98490.47
2022-10-25T06:27:52.237Z,98494.78
2022-10-25T06:28:57.761Z,98490.63
2022-10-25T06:30:01.915Z,98488.00
2022-10-25T06:31:07.104Z,98482.94
2022-10-25T06:32:10.916Z,98489.16
2022-10-25T06:33:13.655Z,98487.81
2022-10-25T06:34:17.410Z,98488.13
2022-10-25T06:35:20.141Z,98486.94
2022-10-25T06:36:27.133Z,98485.59
2022-10-25T06:37:30.316Z,98486.41
2022-10-25T06:38:35.063Z,98489.72
2022-10-25T06:39:38.871Z,98486.94
2022-10-25T06:40:41.556Z,98485.97
2022-10-25T06:41:45.443Z,98490.75
2022-10-25T06:42:49.430Z,98490.00
2022-10-25T06:43:52.399Z,98498.41
2022-10-25T06:44:56.325Z,98492.06
2022-10-25T06:46:05.673Z,98489.66
2022-10-25T06:47:17.472Z,98502.50
2022-10-25T06:48:22.217Z,98495.66
2022-10-25T06:49:26.422Z,98506.59
2022-10-25T06:50:30.375Z,98511.19
2022-10-25T06:51:34.604Z,98500.72
2022-10-25T06:52:38.535Z,98503.50
2022-10-25T06:53:41.481Z,98507.16
2022-10-25T06:54:45.294Z,98510.59
2022-10-25T06:55:49.781Z,98508.94
2022-10-25T06:56:52.615Z,98515.53
2022-10-25T06:57:57.893Z,98518.47
2022-10-25T06:59:00.753Z,98514.19
2022-10-25T07:00:04.905Z,98522.25
2022-10-25T07:01:11.755Z,98517.31
2022-10-25T07:02:15.821Z,98521.41
2022-10-25T07:03:18.620Z,98523.22
2022-10-25T07:04:22.477Z,98522.72
2022-10-25T07:05:25.660Z,98524.81
2022-10-25T07:06:35.751Z,98530.41
2022-10-25T07:07:40.099Z,98528.91
2022-10-25T07:08:44.240Z,98527.28
2022-10-25T07:09:48.044Z,98531.06
2022-10-25T07:10:54.310Z,98528.91
2022-10-25T07:11:58.086Z,98538.25
2022-10-25T07:13:00.830Z,98535.25
2022-10-25T07:14:05.071Z,98526.69
2022-10-25T07:15:09.001Z,98527.50
2022-10-25T07:16:16.342Z,98534.72
2022-10-25T07:17:20.032Z,98537.34
2022-10-25T07:18:22.791Z,98534.72
2022-10-25T07:19:26.820Z,98532.28
2022-10-25T07:20:30.693Z,98526.34
2022-10-25T07:21:34.018Z,98530.94
2022-10-25T07:22:37.854Z,98537.00
2022-10-25T07:23:42.682Z,98530.13
2022-10-25T07:24:46.464Z,98545.53
2022-10-25T07:25:49.160Z,98537.88
2022-10-25T07:26:53.078Z,98540.06
2022-10-25T07:27:56.190Z,98534.81
2022-10-25T07:29:01.558Z,98537.47
2022-10-25T07:30:04.799Z,98539.47
2022-10-25T07:31:09.485Z,98533.56
2022-10-25T07:32:14.719Z,98531.44
2022-10-25T07:33:19.081Z,98529.97
2022-10-25T07:34:24.037Z,98535.41
2022-10-25T07:35:28.004Z,98532.47
2022-10-25T07:36:31.884Z,98532.94
2022-10-25T07:37:35.673Z,98523.28
2022-10-25T07:38:38.442Z,98522.94
2022-10-25T07:39:44.671Z,98525.06
2022-10-25T07:40:47.507Z,98525.22
2022-10-25T07:41:51.424Z,98524.75
2022-10-25T07:42:54.111Z,98527.72
2022-10-25T07:43:58.055Z,98526.09
2022-10-25T07:45:01.870Z,98534.78
2022-10-25T07:46:05.023Z,98529.72
2022-10-25T07:47:08.755Z,98532.16
2022-10-25T07:48:12.873Z,98531.16
2022-10-25T07:49:16.647Z,98535.63
2022-10-25T07:50:21.005Z,98535.09
2022-10-25T07:51:24.764Z,98531.03
2022-10-25T07:52:27.525Z,98531.84
2022-10-25T07:53:31.251Z,98530.66
2022-10-25T07:54:35.061Z,98529.34
2022-10-25T07:55:37.874Z,98521.28
2022-10-25T07:56:41.595Z,98526.88
2022-10-25T07:57:44.446Z,98530.00
2022-10-25T07:58:48.344Z,98529.69
2022-10-25T07:59:52.089Z,98529.53
2022-10-25T08:01:02.392Z,98524.28
2022-10-25T08:02:06.151Z,98532.47
2022-10-25T08:03:09.967Z,98531.81
2022-10-25T08:04:15.343Z,98530.50
2022-10-25T08:05:18.601Z,98531.00
2022-10-25T08:06:23.965Z,98523.75
2022-10-25T08:07:26.766Z,98526.25
2022-10-25T08:08:30.992Z,98528.53
2022-10-25T08:09:38.429Z,98526.41
2022-10-25T08:10:42.614Z,98527.56
2022-10-25T08:11:46.400Z,98532.97
2022-10-25T08:12:49.794Z,98530.50
2022-10-25T08:13:53.611Z,98531.50
2022-10-25T08:14:56.388Z,98532.63
2022-10-25T08:16:00.102Z,98533.00
2022-10-25T08:17:03.979Z,98522.78
2022-10-25T08:18:09.763Z,98531.97
2022-10-25T08:19:13.976Z,98530.81
2022-10-25T08:20:17.800Z,98539.06
2022-10-25T08:21:21.570Z,98535.75
2022-10-25T08:22:24.439Z,98534.28
2022-10-25T08:23:29.416Z,98539.66
2022-10-25T08:24:33.191Z,98536.56
2022-10-25T08:25:36.907Z,98534.06
2022-10-25T08:26:39.601Z,98544.59
2022-10-25T08:27:43.870Z,98549.19
2022-10-25T08:28:47.746Z,98548.22
2022-10-25T08:29:50.450Z,98553.94
2022-10-25T08:30:55.575Z,98555.41
2022-10-25T08:31:58.470Z,98557.81
2022-10-25T08:33:02.386Z,98560.78
2022-10-25T08:34:06.653Z,98566.69
2022-10-25T08:35:10.985Z,98567.25
2022-10-25T08:36:14.937Z,98569.41
2022-10-25T08:37:18.682Z,98567.91
2022-10-25T08:38:21.300Z,98567.41
2022-10-25T08:39:25.152Z,98580.19
2022-10-25T08:40:38.162Z,98575.69
2022-10-25T08:41:46.093Z,98574.00
2022-10-25T08:42:58.693Z,98579.22
2022-10-25T08:44:11.663Z,98587.84
2022-10-25T08:45:19.350Z,98575.53
2022-10-25T08:46:26.392Z,98572.53
2022-10-25T08:47:42.799Z,98579.06
2022-10-25T08:48:50.890Z,98578.97
2022-10-25T08:49:58.417Z,98580.28
2022-10-25T08:51:05.290Z,98578.13
2022-10-25T08:52:19.611Z,98581.84
2022-10-25T08:53:25.128Z,98583.13
2022-10-25T08:54:30.735Z,98580.84
2022-10-25T08:55:41.768Z,98574.91
2022-10-25T08:57:14.961Z,98570.63
2022-10-25T08:58:22.800Z,98576.03
2022-10-25T08:59:28.871Z,98578.66
2022-10-25T09:00:37.471Z,98582.25
2022-10-25T09:01:46.639Z,98576.19
2022-10-25T09:02:53.909Z,98582.41
2022-10-25T09:03:56.743Z,98578.13
2022-10-25T09:05:01.203Z,98575.50
2022-10-25T09:06:14.634Z,98577.16
2022-10-25T09:07:47.782Z,98574.41
2022-10-25T09:09:01.156Z,98579.78
2022-10-25T09:10:16.033Z,98574.53
2022-10-25T09:11:32.517Z,98576.19
2022-10-25T09:12:43.230Z,98587.34
2022-10-25T09:13:52.723Z,98575.88
2022-10-25T09:15:03.100Z,98577.53
2022-10-25T09:16:11.436Z,98574.59
2022-10-25T09:17:19.900Z,98573.31
2022-10-25T09:18:46.173Z,98568.75
2022-10-25T09:20:06.683Z,98574.53
2022-10-25T09:21:22.489Z,98576.31
2022-10-25T09:22:28.111Z,98570.09
2022-10-25T09:23:33.363Z,98565.50
2022-10-25T09:24:41.310Z,98573.06
2022-10-25T09:25:49.467Z,98571.81
2022-10-25T09:27:01.955Z,98572.16
2022-10-25T09:28:10.708Z,98572.53
2022-10-25T09:29:18.813Z,98570.56
2022-10-25T09:30:22.875Z,98581.59
2022-10-25T09:31:26.212Z,98579.50
2022-10-25T09:32:33.566Z,98579.97
2022-10-25T09:33:36.264Z,98578.03
2022-10-25T09:34:41.005Z,98578.53
2022-10-25T09:35:47.553Z,98579.72
2022-10-25T09:36:55.494Z,98579.41
2022-10-25T09:38:03.205Z,98584.22
2022-10-25T09:39:15.713Z,98587.34
2022-10-25T09:40:21.646Z,98580.28
2022-10-25T09:41:35.312Z,98579.16
2022-10-25T09:42:40.069Z,98581.78
2022-10-25T09:43:49.388Z,98579.31
2022-10-25T09:44:55.943Z,98570.44
2022-10-25T09:46:03.947Z,98573.59
2022-10-25T09:47:16.333Z,98555.88
2022-10-25T09:48:25.704Z,98566.88
2022-10-25T09:49:31.793Z,98554.41
2022-10-25T09:50:39.124Z,98557.72
2022-10-25T09:51:49.921Z,98564.63
2022-10-25T09:53:03.213Z,98562.97
2022-10-25T09:54:16.473Z,98569.34
2022-10-25T09:55:33.818Z,98564.25
2022-10-25T09:56:40.820Z,98569.69
2022-10-25T09:57:46.820Z,98575.06
2022-10-25T09:58:50.713Z,98569.16
2022-10-25T09:59:53.517Z,98577.22
2022-10-25T10:00:59.968Z,98561.44
2022-10-25T10:02:03.311Z,98570.16
2022-10-25T10:04:26.952Z,98564.25
2022-10-25T10:05:30.044Z,98566.88
2022-10-25T10:06:36.440Z,98559.19
2022-10-25T10:07:40.881Z,98558.66
2022-10-25T10:08:49.796Z,98557.97
2022-10-25T10:09:56.654Z,98554.38
2022-10-25T10:11:00.997Z,98555.34
2022-10-25T10:12:05.661Z,98549.28
2022-10-25T10:13:15.698Z,98551.75
2022-10-25T10:14:23.199Z,98558.66
2022-10-25T10:15:29.360Z,98569.00
2022-10-25T10:16:35.721Z,98564.56
2022-10-25T10:17:39.491Z,98567.88
2022-10-25T10:18:43.898Z,98568.22
2022-10-25T10:20:08.934Z,98569.53
2022-10-25T10:21:16.023Z,98565.94
2022-10-25T10:22:19.799Z,98573.00
2022-10-25T10:23:22.563Z,98574.13
2022-10-25T10:24:29.772Z,98562.97
2022-10-25T10:25:33.374Z,98574.44
2022-10-25T10:26:39.799Z,98567.53
2022-10-25T10:27:42.948Z,98574.44
2022-10-25T10:28:48.278Z,98566.56
2022-10-25T10:29:57.594Z,98568.06
2022-10-25T10:31:01.949Z,98569.41
2022-10-25T10:32:07.943Z,98567.63
2022-10-25T10:33:18.004Z,98566.69
2022-10-25T10:34:27.302Z,98567.88
2022-10-25T10:35:33.465Z,98574.16
2022-10-25T10:36:37.433Z,98576.94
2022-10-25T10:37:41.313Z,98575.50
2022-10-25T10:38:45.084Z,98581.09
2022-10-25T10:39:54.910Z,98578.28
2022-10-25T10:41:14.938Z,98569.59
2022-10-25T10:42:19.733Z,98569.09
2022-10-25T10:43:29.831Z,98569.91
2022-10-25T10:44:35.076Z,98570.22
2022-10-25T10:45:37.834Z,98576.78
2022-10-25T10:46:46.663Z,98575.78
2022-10-25T10:47:58.304Z,98577.59
2022-10-25T10:49:03.692Z,98572.84
2022-10-25T10:50:13.210Z,98580.91
2022-10-25T10:52:46.659Z,98573.38
2022-10-25T10:53:50.791Z,98580.94
2022-10-25T10:54:56.013Z,98572.88
2022-10-25T10:56:02.664Z,98578.50
2022-10-25T10:57:07.813Z,98569.94
2022-10-25T10:58:16.884Z,98569.81
2022-10-25T10:59:34.216Z,98577.22
2022-10-25T11:00:38.114Z,98569.13
2022-10-25T11:01:40.992Z,98570.81
2022-10-25T11:02:45.056Z,98575.91
2022-10-25T11:03:59.094Z,98573.09
2022-10-25T11:05:20.963Z,98587.59
2022-10-25T11:06:28.378Z,98587.59
2022-10-25T11:07:35.601Z,98582.97
2022-10-25T11:08:41.630Z,98584.78
2022-10-25T11:09:45.142Z,98588.09
2022-10-25T11:10:50.293Z,98590.38
2022-10-25T11:12:07.661Z,98577.53
2022-10-25T11:13:16.668Z,98576.41
2022-10-25T11:14:20.840Z,98583.13
2022-10-25T11:15:24.636Z,98579.69
2022-10-25T11:16:38.832Z,98576.94
2022-10-25T11:17:44.486Z,98579.53
2022-10-25T11:18:54.925Z,98572.28
2022-10-25T11:20:09.675Z,98568.34
2022-10-25T11:21:46.253Z,98564.72
2022-10-25T11:23:01.322Z,98566.84
2022-10-25T11:24:15.689Z,98568.13
2022-10-25T11:25:29.633Z,98565.16
2022-10-25T11:26:51.552Z,98572.38
2022-10-25T11:28:10.483Z,98571.88
2022-10-25T11:29:18.542Z,98571.88
2022-10-25T11:30:23.953Z,98571.88
2022-10-25T11:31:36.782Z,98566.78
2022-10-25T11:33:16.783Z,98564.16
2022-10-25T11:34:27.679Z,98570.94
2022-10-25T11:35:45.763Z,98568.59
2022-10-25T11:36:59.123Z,98578.66
2022-10-25T11:38:05.421Z,98566.44
2022-10-25T11:39:37.693Z,98574.28
2022-10-25T11:40:41.711Z,98574.25
2022-10-25T11:41:49.783Z,98575.06
2022-10-25T11:43:00.919Z,98571.91
2022-10-25T11:44:18.042Z,98571.25
2022-10-25T11:45:29.135Z,98567.44
2022-10-25T11:46:38.774Z,98564.66
2022-10-25T11:47:44.649Z,98567.91
2022-10-25T11:49:09.383Z,98565.41
2022-10-25T11:50:22.919Z,98564.06
2022-10-25T11:51:31.284Z,98567.34
2022-10-25T11:52:56.865Z,98569.13
2022-10-25T11:54:24.750Z,98571.88
2022-10-25T11:55:35.047Z,98565.28
2022-10-25T11:56:45.754Z,98571.19
2022-10-25T11:57:59.179Z,98571.84
2022-10-25T11:59:12.298Z,98577.75
2022-10-25T12:00:18.066Z,98567.88
2022-10-25T12:01:35.876Z,98568.63
2022-10-25T12:02:50.436Z,98567.91
2022-10-25T12:04:03.200Z,98571.03
2022-10-25T12:05:23.124Z,98568.78
2022-10-25T12:06:31.252Z,98567.72
2022-10-25T12:07:38.581Z,98566.66
2022-10-25T12:08:51.452Z,98571.22
2022-10-25T12:10:03.686Z,98564.00
2022-10-25T12:11:12.760Z,98574.84
2022-10-25T12:12:20.914Z,98578.41
2022-10-25T12:13:29.396Z,98569.28
2022-10-25T12:14:36.385Z,98565.66
2022-10-25T12:15:42.303Z,98571.09
2022-10-25T12:16:45.514Z,98577.41
2022-10-25T12:17:49.518Z,98564.38
2022-10-25T12:18:59.227Z,98568.03
2022-10-25T12:20:05.781Z,98565.53
2022-10-25T12:21:11.816Z,98566.72
2022-10-25T12:22:19.033Z,98562.75
2022-10-25T12:23:24.479Z,98571.75
2022-10-25T12:24:30.501Z,98565.47
2022-10-25T12:25:37.260Z,98562.19
2022-10-25T12:26:42.616Z,98561.72
2022-10-25T12:27:47.896Z,98557.63
2022-10-25T12:28:53.157Z,98558.28
2022-10-25T12:30:00.297Z,98553.91
2022-10-25T12:31:10.107Z,98556.81
2022-10-25T12:32:18.670Z,98559.13
2022-10-25T12:33:31.032Z,98554.38
2022-10-25T12:34:43.341Z,98555.38
2022-10-25T12:35:50.601Z,98554.00
2022-10-25T12:36:56.539Z,98549.19
2022-10-25T12:38:02.002Z,98553.19
2022-10-25T12:39:17.651Z,98550.47
2022-10-25T12:41:32.271Z,98545.44
2022-10-25T12:42:40.177Z,98555.44
2022-10-25T12:43:46.691Z,98548.97
2022-10-25T12:45:06.642Z,98549.53
2022-10-25T12:46:30.302Z,98542.56
2022-10-25T12:47:56.080Z,98545.16
2022-10-25T12:49:34.098Z,98541.47
2022-10-25T12:50:52.767Z,98542.22
2022-10-25T12:52:08.330Z,98541.81
2022-10-25T12:53:50.362Z,98545.66
2022-10-25T12:55:30.192Z,98535.97
2022-10-25T12:56:50.937Z,98546.44
2022-10-25T12:58:07.030Z,98539.75
2022-10-25T12:59:19.281Z,98539.75
2022-10-25T13:00:24.036Z,98547.53
2022-10-25T13:01:59.013Z,98537.66
2022-10-25T13:03:35.513Z,98544.09
2022-10-25T13:04:51.570Z,98540.69
2022-10-25T13:06:33.241Z,98537.88
2022-10-25T13:07:37.883Z,98545.22
2022-10-25T13:08:41.551Z,98536.06
2022-10-25T13:09:45.332Z,98546.31